createdAt,value
2022-12-13T00:01:52.175Z,92.88
2022-12-13T00:04:24.319Z,92.59
2022-12-13T00:06:53.854Z,92.56
2022-12-13T00:09:21.855Z,92.47
2022-12-13T00:11:50.159Z,92.55
2022-12-13T00:14:23.045Z,92.60
2022-12-13T00:16:50.601Z,92.78
2022-12-13T00:19:19.491Z,92.83
2022-12-13T00:21:47.587Z,92.61
2022-12-13T00:24:14.852Z,92.57
2022-12-13T00:26:42.154Z,92.70
2022-12-13T00:29:11.842Z,92.49
2022-12-13T00:34:26.192Z,92.59
2022-12-13T00:37:01.096Z,92.32
2022-12-13T00:39:28.993Z,92.29
2022-12-13T00:41:56.298Z,92.58
2022-12-13T00:44:23.871Z,92.70
2022-12-13T00:46:51.780Z,92.62
2022-12-13T00:49:19.112Z,92.57
2022-12-13T00:51:49.326Z,92.74
2022-12-13T00:54:18.116Z,92.32
2022-12-13T00:56:45.114Z,92.50
2022-12-13T00:59:15.788Z,92.22
2022-12-13T01:01:43.023Z,92.33
2022-12-13T01:04:10.685Z,92.51
2022-12-13T01:06:49.622Z,92.47
2022-12-13T01:09:22.208Z,92.43
2022-12-13T01:11:50.386Z,92.37
2022-12-13T01:14:18.710Z,92.41
2022-12-13T01:16:45.837Z,92.51
2022-12-13T01:19:12.927Z,92.61
2022-12-13T01:21:40.015Z,92.73
2022-12-13T01:24:07.986Z,92.34
2022-12-13T01:26:35.146Z,92.59
2022-12-13T01:29:05.315Z,92.77
2022-12-13T01:31:32.639Z,92.83
2022-12-13T01:33:59.647Z,92.52
2022-12-13T01:36:27.362Z,92.84
2022-12-13T01:38:58.812Z,92.69
2022-12-13T01:41:28.822Z,93.01
2022-12-13T01:44:03.600Z,92.76
2022-12-13T01:46:36.096Z,92.93
2022-12-13T01:49:19.991Z,93.17
2022-12-13T01:51:56.048Z,92.82
2022-12-13T01:54:37.380Z,92.87
2022-12-13T01:57:10.274Z,92.82
2022-12-13T01:59:44.853Z,92.88
2022-12-13T02:02:15.066Z,92.40
2022-12-13T02:05:05.713Z,92.42
2022-12-13T02:07:36.837Z,92.61
2022-12-13T02:10:07.000Z,92.67
2022-12-13T02:12:37.771Z,92.55
2022-12-13T02:15:11.904Z,92.40
2022-12-13T02:18:19.559Z,92.49
2022-12-13T02:21:30.944Z,92.61
2022-12-13T02:24:54.992Z,92.38
2022-12-13T02:28:02.972Z,92.77
2022-12-13T02:30:58.579Z,92.79
2022-12-13T02:33:57.451Z,92.64
2022-12-13T02:37:21.472Z,92.73
2022-12-13T02:40:05.191Z,92.68
2022-12-13T02:42:44.923Z,92.56
2022-12-13T02:45:34.637Z,92.85
2022-12-13T02:48:07.311Z,92.61
2022-12-13T02:50:36.115Z,92.77
2022-12-13T02:53:09.031Z,92.70
2022-12-13T02:55:39.471Z,92.67
2022-12-13T02:58:07.318Z,92.59
2022-12-13T03:01:31.185Z,92.83
2022-12-13T03:05:11.781Z,92.64
2022-12-13T03:08:06.600Z,92.45
2022-12-13T03:10:52.174Z,92.69
2022-12-13T03:13:49.340Z,92.71
2022-12-13T03:16:45.784Z,92.46
2022-12-13T03:19:13.706Z,92.55
2022-12-13T03:21:48.060Z,92.95
2022-12-13T03:24:21.420Z,92.72
2022-12-13T03:26:51.621Z,92.62
2022-12-13T03:29:24.030Z,92.77
2022-12-13T03:31:54.183Z,93.05
2022-12-13T03:34:22.475Z,92.78
2022-12-13T03:36:53.426Z,93.15
2022-12-13T03:39:22.180Z,93.05
2022-12-13T03:41:50.391Z,93.20
2022-12-13T03:44:18.842Z,93.20
2022-12-13T03:46:45.921Z,93.30
2022-12-13T03:49:17.097Z,93.30
2022-12-13T03:51:45.271Z,93.15
2022-12-13T03:54:12.445Z,93.44
2022-12-13T03:56:39.603Z,93.32
2022-12-13T03:59:06.705Z,93.53
2022-12-13T04:01:34.832Z,93.59
2022-12-13T04:04:01.967Z,93.59
2022-12-13T04:06:32.930Z,93.73
2022-12-13T04:09:00.607Z,93.80
2022-12-13T04:11:46.253Z,93.67
2022-12-13T04:14:22.872Z,93.54
2022-12-13T04:16:52.403Z,93.57
2022-12-13T04:19:23.560Z,93.64
2022-12-13T04:21:54.585Z,93.71
2022-12-13T04:24:31.039Z,93.67
2022-12-13T04:27:01.066Z,93.63
2022-12-13T04:29:33.971Z,93.56
2022-12-13T04:32:26.494Z,93.54
2022-12-13T04:34:52.847Z,93.68
2022-12-13T04:37:28.006Z,93.78
2022-12-13T04:40:00.579Z,94.05
2022-12-13T04:42:28.532Z,94.45
2022-12-13T04:44:55.573Z,94.35
2022-12-13T04:47:22.683Z,94.25
2022-12-13T04:49:49.678Z,94.30
2022-12-13T04:52:21.965Z,94.11
2022-12-13T04:54:55.589Z,94.13
2022-12-13T04:57:23.700Z,93.93
2022-12-13T04:59:50.721Z,94.04
2022-12-13T05:02:23.358Z,94.15
2022-12-13T05:04:53.830Z,93.65
2022-12-13T05:07:22.787Z,93.43
2022-12-13T05:09:49.860Z,93.56
2022-12-13T05:12:22.561Z,93.33
2022-12-13T05:14:54.119Z,93.36
2022-12-13T05:17:22.059Z,93.24
2022-12-13T05:19:50.106Z,93.51
2022-12-13T05:22:20.268Z,93.56
2022-12-13T05:24:47.913Z,93.08
2022-12-13T05:27:25.016Z,93.49
2022-12-13T05:30:03.961Z,93.16
2022-12-13T05:32:43.613Z,93.48
2022-12-13T05:35:23.213Z,93.19
2022-12-13T05:37:55.502Z,93.20
2022-12-13T05:40:29.098Z,93.35
2022-12-13T05:43:01.505Z,93.22
2022-12-13T05:45:31.812Z,93.59
2022-12-13T05:47:59.912Z,93.88
2022-12-13T05:50:27.059Z,93.86
2022-12-13T05:52:54.117Z,93.76
2022-12-13T05:55:21.199Z,93.53
2022-12-13T05:57:50.608Z,93.33
2022-12-13T06:00:30.259Z,93.50
2022-12-13T06:03:00.863Z,93.31
2022-12-13T06:05:30.585Z,93.48
2022-12-13T06:07:58.625Z,93.28
2022-12-13T06:10:34.696Z,93.66
2022-12-13T06:13:22.022Z,94.22
2022-12-13T06:16:01.103Z,93.83
2022-12-13T06:18:35.400Z,94.35
2022-12-13T06:21:07.050Z,94.42
2022-12-13T06:23:36.518Z,93.63
2022-12-13T06:26:06.839Z,93.29
2022-12-13T06:28:34.611Z,93.11
2022-12-13T06:31:04.928Z,92.96
2022-12-13T06:33:36.658Z,93.37
2022-12-13T06:36:05.338Z,93.29
2022-12-13T06:38:33.696Z,94.02
2022-12-13T06:41:13.315Z,94.02
2022-12-13T06:43:46.575Z,94.14
2022-12-13T06:46:15.286Z,94.16
2022-12-13T06:48:42.451Z,94.24
2022-12-13T06:51:10.626Z,94.42
2022-12-13T06:53:41.454Z,94.31
2022-12-13T06:56:12.046Z,94.38
2022-12-13T06:58:41.862Z,94.20
2022-12-13T07:01:24.158Z,94.16
2022-12-13T07:03:56.115Z,94.10
2022-12-13T07:06:25.371Z,94.46
2022-12-13T07:08:58.055Z,94.67
2022-12-13T07:11:29.522Z,94.53
2022-12-13T07:13:57.138Z,94.67
2022-12-13T07:16:25.131Z,94.45
2022-12-13T07:19:00.783Z,94.48
2022-12-13T07:21:30.293Z,94.60
2022-12-13T07:23:57.586Z,94.37
2022-12-13T07:26:25.319Z,94.46
2022-12-13T07:28:55.601Z,94.51
2022-12-13T07:31:24.457Z,94.53
2022-12-13T07:33:52.337Z,94.37
2022-12-13T07:36:23.222Z,94.34
2022-12-13T07:38:55.801Z,94.51
2022-12-13T07:41:27.155Z,94.62
2022-12-13T07:43:56.290Z,94.72
2022-12-13T07:46:32.344Z,94.60
2022-12-13T07:49:05.603Z,94.43
2022-12-13T07:51:38.736Z,94.32
2022-12-13T07:54:08.363Z,94.53
2022-12-13T07:56:35.911Z,94.48
2022-12-13T07:59:04.070Z,94.29
2022-12-13T08:01:35.064Z,94.27
2022-12-13T08:04:06.027Z,94.25
2022-12-13T08:06:38.249Z,94.04
2022-12-13T08:09:06.437Z,94.30
2022-12-13T08:11:33.733Z,94.28
2022-12-13T08:14:00.845Z,94.18
2022-12-13T08:16:30.006Z,93.87
2022-12-13T08:19:01.575Z,93.86
2022-12-13T08:21:57.992Z,94.04
2022-12-13T08:24:30.847Z,94.00
2022-12-13T08:27:02.593Z,94.21
2022-12-13T08:29:35.900Z,94.12
2022-12-13T08:32:11.639Z,93.88
2022-12-13T08:34:39.451Z,93.97
2022-12-13T08:37:06.739Z,94.10
2022-12-13T08:39:37.329Z,94.03
2022-12-13T08:42:15.447Z,94.09
2022-12-13T08:44:50.849Z,94.19
2022-12-13T08:47:23.165Z,94.04
2022-12-13T08:50:02.678Z,93.97
2022-12-13T08:52:40.638Z,94.09
2022-12-13T08:55:11.125Z,94.01
2022-12-13T08:57:39.432Z,94.09
2022-12-13T09:00:11.299Z,93.98
2022-12-13T09:02:38.982Z,94.14
2022-12-13T09:05:08.867Z,94.08
2022-12-13T09:07:36.835Z,94.01
2022-12-13T09:10:26.009Z,94.03
2022-12-13T09:13:01.384Z,94.00
2022-12-13T09:15:34.287Z,93.94
2022-12-13T09:18:04.701Z,93.69
2022-12-13T09:20:41.638Z,93.95
2022-12-13T09:23:14.002Z,93.89
2022-12-13T09:26:05.315Z,93.61
2022-12-13T09:28:37.021Z,93.87
2022-12-13T09:31:10.078Z,93.70
2022-12-13T09:33:41.359Z,93.73
2022-12-13T09:36:13.282Z,93.58
2022-12-13T09:38:40.855Z,93.58
2022-12-13T09:41:32.721Z,93.41
2022-12-13T09:44:32.445Z,93.47
2022-12-13T09:47:13.437Z,93.62
2022-12-13T09:49:51.915Z,93.52
2022-12-13T09:52:25.101Z,93.61
2022-12-13T09:54:57.168Z,93.51
2022-12-13T09:57:32.777Z,93.35
2022-12-13T10:00:11.548Z,93.39
2022-12-13T10:02:57.112Z,93.50
2022-12-13T10:05:39.541Z,93.70
2022-12-13T10:08:14.821Z,93.48
2022-12-13T10:10:43.846Z,93.60
2022-12-13T10:13:42.666Z,93.56
2022-12-13T10:16:24.750Z,93.70
2022-12-13T10:18:52.267Z,93.64
2022-12-13T10:21:31.762Z,93.61
2022-12-13T10:24:36.505Z,93.58
2022-12-13T10:27:14.969Z,93.48
2022-12-13T10:30:08.681Z,93.35
2022-12-13T10:33:00.953Z,93.37
2022-12-13T10:35:38.480Z,93.56
2022-12-13T10:38:08.326Z,93.37
2022-12-13T10:40:40.469Z,93.36
2022-12-13T10:43:21.218Z,93.06
2022-12-13T10:45:57.715Z,92.55
2022-12-13T10:48:50.885Z,92.66
2022-12-13T10:51:22.150Z,92.66
2022-12-13T10:53:57.318Z,92.44
2022-12-13T10:56:39.003Z,92.58
2022-12-13T10:59:24.143Z,92.12
2022-12-13T11:01:51.995Z,92.07
2022-12-13T11:04:29.251Z,91.24
2022-12-13T11:07:00.411Z,91.14
2022-12-13T11:09:39.018Z,90.47
2022-12-13T11:12:23.322Z,90.34
2022-12-13T11:15:01.847Z,90.32
2022-12-13T11:17:36.320Z,90.10
2022-12-13T11:20:21.109Z,89.87
2022-12-13T11:22:58.728Z,89.75
2022-12-13T11:25:40.196Z,89.79
2022-12-13T11:28:56.229Z,89.96
2022-12-13T11:31:48.840Z,90.37
2022-12-13T11:34:39.222Z,90.31
2022-12-13T11:37:30.640Z,89.93
2022-12-13T11:40:20.446Z,90.20
2022-12-13T11:43:05.811Z,89.81
2022-12-13T11:45:58.687Z,89.57
2022-12-13T11:48:56.383Z,88.87
2022-12-13T11:51:43.213Z,89.03
2022-12-13T11:54:44.386Z,89.21
2022-12-13T11:57:38.155Z,89.14
2022-12-13T12:00:37.068Z,89.01
2022-12-13T12:03:34.990Z,88.37
2022-12-13T12:06:14.602Z,87.75
2022-12-13T12:08:53.502Z,87.72
2022-12-13T12:11:33.487Z,87.77
2022-12-13T12:14:37.016Z,87.68
2022-12-13T12:17:07.009Z,86.48
2022-12-13T12:19:41.260Z,86.57
2022-12-13T12:22:40.531Z,86.20
2022-12-13T12:25:19.693Z,85.64
2022-12-13T12:28:12.082Z,85.99
2022-12-13T12:30:46.277Z,85.70
2022-12-13T12:34:27.145Z,86.06
2022-12-13T12:37:25.434Z,86.27
2022-12-13T12:40:52.584Z,86.31
2022-12-13T12:43:41.185Z,86.04
2022-12-13T12:46:28.442Z,85.07
2022-12-13T12:49:32.706Z,85.05
2022-12-13T12:52:38.341Z,85.81
2022-12-13T12:55:39.628Z,85.58
2022-12-13T12:58:54.494Z,85.43
2022-12-13T13:01:54.168Z,85.52
2022-12-13T13:04:42.425Z,85.24
2022-12-13T13:07:31.841Z,85.13
2022-12-13T13:10:26.397Z,84.31
2022-12-13T13:13:12.422Z,84.39
2022-12-13T13:15:40.211Z,84.47
2022-12-13T13:18:48.137Z,84.49
2022-12-13T13:21:23.978Z,84.99
2022-12-13T13:24:17.807Z,85.23
2022-12-13T13:26:51.917Z,84.69
2022-12-13T13:29:27.544Z,84.64
2022-12-13T13:32:28.258Z,84.94
2022-12-13T13:35:48.037Z,84.82
2022-12-13T13:38:52.159Z,84.72
2022-12-13T13:41:55.177Z,85.04
2022-12-13T13:45:23.621Z,85.17
2022-12-13T13:48:21.980Z,85.53
2022-12-13T13:51:30.067Z,85.61
2022-12-13T13:54:24.220Z,85.92
2022-12-13T13:58:07.072Z,85.98
2022-12-13T14:00:28.707Z,85.68
2022-12-13T14:03:34.835Z,85.91
2022-12-13T14:06:32.890Z,85.99
2022-12-13T14:09:38.500Z,86.02
2022-12-13T14:13:02.637Z,86.20
2022-12-13T14:16:07.179Z,86.26
2022-12-13T14:19:04.999Z,86.35
2022-12-13T14:22:11.306Z,86.14
2022-12-13T14:25:40.263Z,86.44
2022-12-13T14:28:56.674Z,86.56
2022-12-13T14:31:42.170Z,86.78
2022-12-13T14:34:23.564Z,86.65
2022-12-13T14:37:04.367Z,86.86
2022-12-13T14:39:34.733Z,87.12
2022-12-13T14:42:24.345Z,87.20
2022-12-13T14:44:52.818Z,87.36
2022-12-13T14:47:21.885Z,87.07
2022-12-13T14:49:55.276Z,87.26
2022-12-13T14:52:38.952Z,87.23
2022-12-13T14:55:06.976Z,87.29
2022-12-13T14:57:35.425Z,87.30
2022-12-13T15:00:23.262Z,87.42
2022-12-13T15:02:54.939Z,87.46
2022-12-13T15:05:34.335Z,87.56
2022-12-13T15:08:10.444Z,87.70
2022-12-13T15:10:48.424Z,87.33
2022-12-13T15:13:42.414Z,87.53
2022-12-13T15:16:22.797Z,87.52
2022-12-13T15:19:29.036Z,87.56
2022-12-13T15:22:17.194Z,87.51
2022-12-13T15:24:51.539Z,87.56
2022-12-13T15:27:27.270Z,87.22
2022-12-13T15:29:55.066Z,87.49
2022-12-13T15:32:25.410Z,87.50
2022-12-13T15:34:52.802Z,87.23
2022-12-13T15:37:31.628Z,87.66
2022-12-13T15:40:09.261Z,87.29
2022-12-13T15:42:44.485Z,87.48
2022-12-13T15:45:25.631Z,87.53
2022-12-13T15:47:54.903Z,87.38
2022-12-13T15:50:43.681Z,87.40
2022-12-13T15:53:29.135Z,87.27
2022-12-13T15:55:56.822Z,87.51
2022-12-13T15:58:36.381Z,87.72
2022-12-13T16:01:07.075Z,87.71
2022-12-13T16:03:43.664Z,87.85
2022-12-13T16:06:18.295Z,87.91
2022-12-13T16:08:50.058Z,87.90
2022-12-13T16:11:28.194Z,88.25
2022-12-13T16:13:58.151Z,88.25
2022-12-13T16:16:31.949Z,88.31
2022-12-13T16:19:01.072Z,88.37
2022-12-13T16:21:30.017Z,88.34
2022-12-13T16:23:57.258Z,88.29
2022-12-13T16:26:27.787Z,88.32
2022-12-13T16:29:00.169Z,88.45
2022-12-13T16:31:35.965Z,88.49
2022-12-13T16:34:05.472Z,88.52
2022-12-13T16:36:33.107Z,88.31
2022-12-13T16:39:01.054Z,88.08
2022-12-13T16:41:28.448Z,88.09
2022-12-13T16:44:00.368Z,88.33
2022-12-13T16:47:12.458Z,88.16
2022-12-13T16:49:28.930Z,87.59
2022-12-13T16:51:57.338Z,87.44
2022-12-13T16:54:26.008Z,87.65
2022-12-13T16:56:54.356Z,87.72
2022-12-13T16:59:24.966Z,87.35
2022-12-13T17:01:53.228Z,87.18
2022-12-13T17:04:23.627Z,87.16
2022-12-13T17:06:54.627Z,87.18
2022-12-13T17:09:25.246Z,87.11
2022-12-13T17:11:52.799Z,87.01
2022-12-13T17:14:19.817Z,86.79
2022-12-13T17:16:47.346Z,87.09
2022-12-13T17:19:15.665Z,87.38
2022-12-13T17:21:43.514Z,87.31
2022-12-13T17:24:10.601Z,87.23
2022-12-13T17:26:40.324Z,87.33
2022-12-13T17:29:07.535Z,87.33
2022-12-13T17:31:36.157Z,87.21
2022-12-13T17:34:05.233Z,87.29
2022-12-13T17:36:32.485Z,87.34
2022-12-13T17:38:59.523Z,87.27
2022-12-13T17:41:26.577Z,87.41
2022-12-13T17:43:57.819Z,87.36
2022-12-13T17:46:25.465Z,87.61
2022-12-13T17:48:52.831Z,87.76
2022-12-13T17:51:19.980Z,87.77
2022-12-13T17:53:49.059Z,87.78
2022-12-13T17:56:17.784Z,87.77
2022-12-13T17:58:45.453Z,87.77
2022-12-13T18:01:24.462Z,87.77
2022-12-13T18:03:55.650Z,87.88
2022-12-13T18:06:24.992Z,87.91
2022-12-13T18:08:52.524Z,87.98
2022-12-13T18:11:35.849Z,88.25
2022-12-13T18:14:08.338Z,88.02
2022-12-13T18:16:38.233Z,88.17
2022-12-13T18:19:12.992Z,88.33
2022-12-13T18:21:41.233Z,88.37
2022-12-13T18:24:10.559Z,88.21
2022-12-13T18:26:38.613Z,88.27
2022-12-13T18:29:05.760Z,88.42
2022-12-13T18:31:33.025Z,88.37
2022-12-13T18:34:00.488Z,88.39
2022-12-13T18:36:27.602Z,88.63
2022-12-13T18:38:54.840Z,88.39
2022-12-13T18:41:27.914Z,88.54
2022-12-13T18:43:59.565Z,88.79
2022-12-13T18:46:30.244Z,88.64
2022-12-13T18:48:58.003Z,88.62
2022-12-13T18:51:25.863Z,88.77
2022-12-13T18:53:54.679Z,88.84
2022-12-13T18:56:22.516Z,88.78
2022-12-13T18:58:50.850Z,88.63
2022-12-13T19:01:19.541Z,88.90
2022-12-13T19:03:48.667Z,88.78
2022-12-13T19:06:27.759Z,88.96
2022-12-13T19:08:57.876Z,89.18
2022-12-13T19:11:28.121Z,89.19
2022-12-13T19:13:56.586Z,89.26
2022-12-13T19:16:25.948Z,89.39
2022-12-13T19:18:53.431Z,89.03
2022-12-13T19:21:22.832Z,89.27
2022-12-13T19:23:56.902Z,89.23
2022-12-13T19:26:29.629Z,89.21
2022-12-13T19:28:58.777Z,89.21
2022-12-13T19:31:32.172Z,89.34
2022-12-13T19:34:03.390Z,89.23
2022-12-13T19:36:32.444Z,89.26
2022-12-13T19:38:59.931Z,89.28
2022-12-13T19:41:27.167Z,89.38
2022-12-13T19:43:54.442Z,88.96
2022-12-13T19:46:22.083Z,88.88
2022-12-13T19:48:49.815Z,88.98
2022-12-13T19:51:17.962Z,88.92
2022-12-13T19:53:45.074Z,88.89
2022-12-13T19:56:17.973Z,88.89
2022-12-13T19:58:47.480Z,88.64
2022-12-13T20:01:16.602Z,88.71
2022-12-13T20:03:46.607Z,88.82
2022-12-13T20:06:19.555Z,88.83
2022-12-13T20:08:46.756Z,88.76
2022-12-13T20:11:20.485Z,88.55
2022-12-13T20:13:52.694Z,88.67
2022-12-13T20:16:23.680Z,88.48
2022-12-13T20:18:57.804Z,88.73
2022-12-13T20:21:25.710Z,88.65
2022-12-13T20:23:53.396Z,88.54
2022-12-13T20:26:27.510Z,88.33
2022-12-13T20:28:55.778Z,88.21
2022-12-13T20:31:34.826Z,88.15
2022-12-13T20:34:06.782Z,87.99
2022-12-13T20:36:33.849Z,88.22
2022-12-13T20:39:04.488Z,87.93
2022-12-13T20:41:34.775Z,88.07
2022-12-13T20:44:05.811Z,88.15
2022-12-13T20:46:34.171Z,88.15
2022-12-13T20:49:06.063Z,87.90
2022-12-13T20:51:35.327Z,87.87
2022-12-13T20:54:03.707Z,88.08
2022-12-13T20:56:35.271Z,87.95
2022-12-13T20:59:05.759Z,88.13
2022-12-13T21:01:38.369Z,88.09
2022-12-13T21:04:10.098Z,88.08
2022-12-13T21:06:40.677Z,88.15
2022-12-13T21:09:10.572Z,88.03
2022-12-13T21:11:41.891Z,87.85
2022-12-13T21:14:22.787Z,87.86
2022-12-13T21:17:00.230Z,87.81
2022-12-13T21:19:38.952Z,87.89
2022-12-13T21:22:07.504Z,87.85
2022-12-13T21:24:35.554Z,88.00
2022-12-13T21:27:02.791Z,88.08
2022-12-13T21:29:29.785Z,87.95
2022-12-13T21:31:56.926Z,87.98
2022-12-13T21:34:24.122Z,88.08
2022-12-13T21:36:52.622Z,88.03
2022-12-13T21:39:23.146Z,87.92
2022-12-13T21:41:51.065Z,88.02
2022-12-13T21:44:18.649Z,87.93
2022-12-13T21:49:33.811Z,87.90
2022-12-13T21:52:00.958Z,87.80
2022-12-13T21:54:27.914Z,87.45
2022-12-13T21:57:13.833Z,87.21
2022-12-13T21:59:40.846Z,87.27
2022-12-13T22:02:16.407Z,87.29
2022-12-13T22:04:55.422Z,87.04
2022-12-13T22:07:32.337Z,87.24
2022-12-13T22:10:01.944Z,86.79
2022-12-13T22:12:35.869Z,86.77
2022-12-13T22:15:07.076Z,86.72
2022-12-13T22:17:36.022Z,86.78
2022-12-13T22:20:14.191Z,87.11
2022-12-13T22:22:44.070Z,87.00
2022-12-13T22:25:11.890Z,86.87
2022-12-13T22:27:38.959Z,86.62
2022-12-13T22:30:07.093Z,86.62
2022-12-13T22:32:34.299Z,86.29
2022-12-13T22:35:01.398Z,85.83
2022-12-13T22:37:29.611Z,85.60
2022-12-13T22:39:56.762Z,85.61
2022-12-13T22:42:24.068Z,85.37
2022-12-13T22:44:52.217Z,85.16
2022-12-13T22:47:19.661Z,85.33
2022-12-13T22:49:48.720Z,84.75
2022-12-13T22:52:17.012Z,84.91
2022-12-13T22:54:44.136Z,84.98
2022-12-13T22:57:11.230Z,84.99
2022-12-13T22:59:38.406Z,85.18
2022-12-13T23:02:05.660Z,84.97
2022-12-13T23:04:32.993Z,84.47
2022-12-13T23:07:00.599Z,84.63
2022-12-13T23:09:27.648Z,84.37
2022-12-13T23:12:13.842Z,84.18
2022-12-13T23:14:41.287Z,84.36
2022-12-13T23:17:08.573Z,84.65
2022-12-13T23:19:49.803Z,84.37
2022-12-13T23:22:25.935Z,83.95
2022-12-13T23:24:53.428Z,84.33
2022-12-13T23:27:22.871Z,83.55
2022-12-13T23:29:50.990Z,83.72
2022-12-13T23:32:18.444Z,83.95
2022-12-13T23:34:47.501Z,83.97
2022-12-13T23:37:14.655Z,83.60
2022-12-13T23:39:41.723Z,83.74
2022-12-13T23:42:09.028Z,83.53
2022-12-13T23:44:36.439Z,83.55
2022-12-13T23:47:03.545Z,83.52
2022-12-13T23:49:30.612Z,83.59
2022-12-13T23:51:57.648Z,83.78
2022-12-13T23:54:24.781Z,83.60
2022-12-13T23:56:51.835Z,83.58
2022-12-13T23:59:18.990Z,83.55
